Eumetcast maandelijkse Satelliet onderhoudt van Start Tijd: 25-07-2017 11:00 Eind Tijd: 27-07-2017 11:00
Eumetcast Monthly Satellite Maintains From Start Time: 25-07-2017 11:00 End Time: 27-07-2017 11:00

Lokaal Brand Risico
CBI


Neerslagradar Meer informatie rain snow radar


Onweersbuien Meer informatie Boltek Parkstad!


24/7 Weercamera Meer informatie Webcam







Het weer levert geen direct gevaar op in Parkstad (045)    Er zijn geen waarschuwingen afgegeven voor Parkstad (045)

METAR rapporten vliegvelden

   
EHBK - WMC Kerkrade
Gewijzigd: 25-07-2017 22:25
Motregen, Grotendeels bewolkt  
Motregen, Grotendeels bewolkt  
   Wind: NW 11.1 km/h
Wind: NW 11.1 km/h
Temperatuur: 15°C
Dauwpunt: 14°C
Vochtigheid: 94%
Barometer: 1011 hPa
Satelliet beelden: Grotendeels bewolkt
Zicht: meer dan 10 km
Bewolking: Licht bewolkt 500 ft,
Grotendeels bewolkt 600 ft,
Grotendeels bewolkt 700 ft,
Licht bewolkt 1500 ft
EHBK 252025Z AUTO 31006KT 260V350 9999 DZ FEW005 BKN006 BKN007 FEW015CB 15/14 Q1011 TEMPO 4000 RADZ BKN012
EHBK - Maastricht Nederland
Gewijzigd: 25-07-2017 22:25
Motregen, Grotendeels bewolkt  
Motregen, Grotendeels bewolkt  
   Wind: NW 11.1 km/h
Wind: NW 11.1 km/h
Temperatuur: 15°C
Dauwpunt: 14°C
Vochtigheid: 94%
Barometer: 1011 hPa
Satelliet beelden: Grotendeels bewolkt
Zicht: meer dan 10 km
Bewolking: Licht bewolkt 500 ft,
Grotendeels bewolkt 600 ft,
Grotendeels bewolkt 700 ft,
Licht bewolkt 1500 ft
EHBK 252025Z AUTO 31006KT 260V350 9999 DZ FEW005 BKN006 BKN007 FEW015CB 15/14 Q1011 TEMPO 4000 RADZ BKN012
EBLG - Liège België
Gewijzigd: 25-07-2017 22:20
Grotendeels bewolkt  
Grotendeels bewolkt  
   Wind: WNW 14.8 km/h
Wind: WNW 14.8 km/h
Temperatuur: 15°C
Dauwpunt: 13°C
Vochtigheid: 88%
Barometer: 1011 hPa
Satelliet beelden: Grotendeels bewolkt
Zicht: meer dan 10 km
Bewolking: Licht bewolkt 2100 ft,
Grotendeels bewolkt 3500 ft
EBLG 252020Z 30008KT 9999 FEW021 BKN035 15/13 Q1011 RESHRA TEMPO 3000 SHRA BKN007
EDDK - Köln/Bonn Duitsland
Gewijzigd: 25-07-2017 22:20
Lichte (mot)regen, Neerslag, Grotendeels bewolkt  
Lichte (mot)regen, Neerslag, Grotendeels bewolkt  
   Wind: NW 25.9 km/h
Wind: NW 25.9 km/h
Temperatuur: 15°C
Dauwpunt: 15°C
Vochtigheid: 100%
Barometer: 1008 hPa
Satelliet beelden: Grotendeels bewolkt
Zicht: 6 km
Bewolking: Grotendeels bewolkt 600 ft
EDDK 252020Z 31014KT 6000 -DZRA BKN006 15/15 Q1008 NOSIG
EDDL - Düsseldorf Duitsland
Gewijzigd: 25-07-2017 22:20
Wat regen mogelijk, Bewolking  
Wat regen mogelijk, Bewolking  
   Wind: NW 20.4 km/h
Wind: NW 20.4 km/h
Temperatuur: 15°C
Dauwpunt: 14°C
Vochtigheid: 94%
Barometer: 1008 hPa
Satelliet beelden: Bewolking
Zicht: meer dan 10 km
Bewolking: Gedeeltelijk bewolkt 900 ft,
Grotendeels bewolkt 1300 ft,
Bewolking 4500 ft
EDDL 252020Z 32011KT 9999 -RA SCT009 BKN013 OVC045 15/14 Q1008 TEMPO BKN009
EHEH - Eindhoven Nederland
Gewijzigd: 25-07-2017 22:39
Wat regen mogelijk, Grotendeels bewolkt  
Wat regen mogelijk, Grotendeels bewolkt  
   Wind: NNW 7.4 km/h
Wind: NNW 7.4 km/h
Temperatuur: 16°C
Dauwpunt: 15°C
Vochtigheid: 94%
Barometer: 1010 hPa
Satelliet beelden: Grotendeels bewolkt
Zicht: 6 km
Bewolking: Grotendeels bewolkt 700 ft,
Grotendeels bewolkt 800 ft,
Grotendeels bewolkt 1000 ft,
Licht bewolkt 1500 ft
EHEH 252039Z AUTO 34004KT 270V040 6000 -RA BKN007 BKN008 BKN010 FEW015CB 16/15 Q1010 GRN 31008KT 9999 SCT012 BKN016 TEMPO 32010G20KT 4000 -SHRA SCT007 SCT018CB BKN030
ELLX - Luxemburg Luxemburg
Gewijzigd: 25-07-2017 22:20
Wat regen mogelijk, Grotendeels bewolkt  
Wat regen mogelijk, Grotendeels bewolkt  
   Wind: WNW 18.5 km/h
Wind: WNW 18.5 km/h
Temperatuur: 15°C
Dauwpunt: 12°C
Vochtigheid: 82%
Barometer: 1011 hPa
Satelliet beelden: Grotendeels bewolkt
Zicht: meer dan 10 km
Bewolking: Licht bewolkt 2500 ft,
Grotendeels bewolkt 7000 ft
ELLX 252020Z 30010KT 270V340 9999 -RA FEW025 BKN070 15/12 Q1011 NOSIG
EGLL - London England
Gewijzigd: 25-07-2017 22:20
Helder  
Helder  
   Wind: Zuiden 11.1 km/h
Wind: Zuiden 11.1 km/h
Temperatuur: 20°C
Dauwpunt: 13°C
Vochtigheid: 64%
Barometer: 1013 hPa
Satelliet beelden: Helder
Zicht: meer dan 10 km
Bewolking: Helder
EGLL 252020Z AUTO 19006KT 130V250 9999 NCD 20/13 Q1013
EBAW - Antwerpen België
Gewijzigd: 25-07-2017 22:20
Gedeeltelijk bewolkt  
Gedeeltelijk bewolkt  
   Wind: NNW 22.2 km/h
Wind: NNW 22.2 km/h
Temperatuur: 17°C
Dauwpunt: 12°C
Vochtigheid: 73%
Barometer: 1012 hPa
Satelliet beelden: Gedeeltelijk bewolkt
Zicht: meer dan 10 km
Bewolking: Gedeeltelijk bewolkt 2100 ft
EBAW 252020Z 33012KT 9999 SCT021 17/12 Q1012 NOSIG
EBOS - Oostende België
Gewijzigd: 25-07-2017 22:20
Gedeeltelijk bewolkt  
Gedeeltelijk bewolkt  
   Wind: NNW 18.5 km/h
Wind: NNW 18.5 km/h
Temperatuur: 16°C
Dauwpunt: 13°C
Vochtigheid: 83%
Barometer: 1014 hPa
Satelliet beelden: Gedeeltelijk bewolkt
Zicht: meer dan 10 km
Bewolking: Gedeeltelijk bewolkt 1600 ft,
Gedeeltelijk bewolkt 4600 ft
EBOS 252020Z 34010KT 9999 SCT016 SCT046 16/13 Q1014 NOSIG
LEAL - La Nucia Spanje
Gewijzigd: 25-07-2017 22:30
Licht bewolkt  
Licht bewolkt  
   Wind: ONO 9.3 km/h
Wind: ONO 9.3 km/h
Temperatuur: 26°C
Dauwpunt: 20°C
Vochtigheid: 70%
Barometer: 1014 hPa
Satelliet beelden: Licht bewolkt
Zicht: meer dan 10 km
Bewolking: Licht bewolkt 2500 ft
LEAL 252030Z 07005KT 9999 FEW025 26/20 Q1014 NOSIG
TNCA - Oranjestad Aruba
Gewijzigd: 25-07-2017 22:00
Licht bewolkt  
Licht bewolkt  
   Wind: Oosten 33.3 km/h
Wind: Oosten 33.3 km/h
Temperatuur: 30°C
Gevoelstemperatuur: 36°C
Dauwpunt: 25°C
Vochtigheid: 75%
Barometer: 1010 hPa
Satelliet beelden: Licht bewolkt
Zicht: meer dan 10 km
Bewolking: Licht bewolkt 1900 ft
TNCA 252000Z 09018KT 9999 FEW019 30/25 Q1010 NOSIG
TNCC - Willemstad Curacao
Gewijzigd: 25-07-2017 22:00
Licht bewolkt  
Licht bewolkt  
   Wind: Oosten 22.2 km/h
Wind: Oosten 22.2 km/h
Temperatuur: 31°C
Gevoelstemperatuur: 37°C
Dauwpunt: 24°C
Vochtigheid: 66%
Barometer: 1012 hPa
Satelliet beelden: Licht bewolkt
Zicht: meer dan 10 km
Bewolking: Licht bewolkt 2000 ft
TNCC 252000Z 10012KT 9999 FEW020 31/24 Q1012 NOSIG
MTPP - Port au Prince Haitië
Gewijzigd: 25-07-2017 22:00
Gedeeltelijk bewolkt  
Gedeeltelijk bewolkt  
   Wind: NNO 29.6 km/h
Wind: NNO 29.6 km/h
Temperatuur: 30°C
Gevoelstemperatuur: 35°C
Dauwpunt: 24°C
Vochtigheid: 70%
Barometer: 1016 hPa
Satelliet beelden: Gedeeltelijk bewolkt
Zicht: 9 km
Bewolking: Gedeeltelijk bewolkt 3200 ft
MTPP 252000Z 03016KT 9000 SCT032CB 30/24 Q1016 A3001 RMK
ENVA - Trondheim Noorwegen
Gewijzigd: 25-07-2017 22:20
Helder  
Helder  
   Wind: Noorden 3.7 km/h
Wind: Noorden 3.7 km/h
Temperatuur: 17°C
Dauwpunt: 14°C
Vochtigheid: 83%
Barometer: 1013 hPa
Zicht: meer dan 10 km
Bewolking: Helder
ENVA 252020Z 36002KT CAVOK 17/14 Q1013 RMK WIND 670FT 00000KT
ENBO - Bodø Noorwegen
Gewijzigd: 25-07-2017 22:20
Helder  
Helder  
   Wind: NNW 5.6 km/h
Wind: NNW 5.6 km/h
Temperatuur: 16°C
Dauwpunt: 12°C
Vochtigheid: 77%
Barometer: 1015 hPa
Zicht: meer dan 10 km
Bewolking: Helder
ENBO 252020Z 34003KT 290V030 CAVOK 16/12 Q1015 NOSIG
ETNG - Geilenkirchen Duitsland
Gewijzigd: 25-07-2017 21:50
Wat regen mogelijk, Grotendeels bewolkt  
Wat regen mogelijk, Grotendeels bewolkt  
   Wind: WNW 25.9 km/h
Wind: WNW 25.9 km/h
Temperatuur: 15°C
Dauwpunt: 14°C
Vochtigheid: 94%
Barometer: 1010 hPa
Satelliet beelden: Grotendeels bewolkt
Zicht: meer dan 10 km
Bewolking: Licht bewolkt 700 ft,
Grotendeels bewolkt 1000 ft,
Grotendeels bewolkt 2100 ft
ETNG 251950Z 29014KT 9999 -RA FEW007 BKN010 BKN021 15/14 Q1010 RERA
 

Script ontwikkeld door  Saratoga-weather.org Aangepast voor de template door  Weerstation Leuven

U vindt ons ook hier:

Het Weer Aktueel

UK Metoffice

European Weather Network

WeatherCloud

Weather Underground

Benelux Weer Netwerk

AWEKAS

WeatherlinkIP

Citizen Weather Observer Program (CWOP)

HAMweather, WeatherForYou, PWS Weather

Apparatuur in gebruik:

Hardwareleverancier
Weerhuisje

Weerstation
Vantage Pro2 Plus +UV

Weercomputer
AwekasBox (ALIX.3D2 PC)

Weerprogramma
Smartbedded

Weersatelliet
WRX137 & KX137

Bliksemdetectie
Boltek StormTracker PCI

Webleverancier
STRATO VPS Linux V80

Weerhuisje

Vantage Pro2 Plus +UV

AwekasBox (ALIX.3D2 PC)

Smartbedded

WRX137 & KX137

Boltek StormTracker PCI

STRATO VPS Linux V80